createdAt,value
2023-03-14T06:28:02.784Z,9.23
2023-03-14T06:33:04.933Z,10.17
2023-03-14T06:38:07.013Z,9.00
2023-03-14T06:43:09.098Z,10.05
2023-03-14T06:48:11.163Z,10.13
2023-03-14T06:53:19.286Z,10.17
2023-03-14T06:58:21.378Z,9.10
2023-03-14T07:03:23.611Z,11.63
2023-03-14T07:08:25.686Z,13.13
2023-03-14T07:13:27.767Z,12.70
2023-03-14T07:18:29.830Z,11.52
2023-03-14T07:23:31.947Z,10.83
2023-03-14T07:28:34.044Z,9.45
2023-03-14T07:33:36.274Z,9.95
2023-03-14T07:38:38.407Z,11.63
2023-03-14T07:43:40.686Z,10.43
2023-03-14T07:48:42.783Z,11.45
2023-03-14T07:53:45.360Z,10.05
2023-03-14T07:58:47.454Z,15.30
2023-03-14T08:03:49.746Z,8.65
2023-03-14T08:08:51.967Z,10.48
2023-03-14T08:13:54.032Z,8.60
2023-03-14T08:18:57.169Z,10.85
2023-03-14T08:23:59.246Z,11.48
2023-03-14T08:29:01.383Z,11.70
2023-03-14T08:34:03.958Z,9.63
2023-03-14T08:39:08.301Z,12.77
2023-03-14T08:44:12.529Z,12.18
2023-03-14T08:49:15.855Z,10.33
2023-03-14T08:54:18.257Z,10.48
2023-03-14T08:59:20.342Z,11.23
2023-03-14T09:04:22.878Z,9.33
2023-03-14T09:09:25.961Z,8.70
2023-03-14T09:14:28.258Z,8.25
2023-03-14T09:19:30.341Z,6.33
2023-03-14T09:24:32.509Z,8.73
2023-03-14T09:29:35.332Z,6.43
2023-03-14T09:34:37.469Z,8.38
2023-03-14T09:39:39.660Z,14.77
2023-03-14T09:44:53.266Z,8.30
2023-03-14T09:49:55.392Z,9.00
2023-03-14T09:55:04.281Z,8.13
2023-03-14T10:00:28.579Z,6.80
2023-03-14T10:05:30.747Z,13.30
2023-03-14T10:10:33.540Z,10.20
2023-03-14T10:15:36.394Z,7.00
2023-03-14T10:20:47.833Z,7.53
2023-03-14T10:26:14.199Z,9.45
2023-03-14T10:31:16.811Z,9.87
2023-03-14T10:36:24.668Z,9.80
2023-03-14T10:41:28.271Z,5.53
2023-03-14T10:46:33.490Z,6.73
2023-03-14T10:51:35.623Z,5.05
2023-03-14T10:56:38.517Z,4.72
2023-03-14T11:01:56.023Z,2.90
2023-03-14T11:07:07.317Z,6.43
2023-03-14T11:12:28.177Z,24.02
2023-03-14T11:17:48.231Z,5.45
2023-03-14T11:23:04.602Z,4.77
2023-03-14T11:28:46.616Z,8.15
2023-03-14T11:34:07.622Z,6.82
2023-03-14T11:39:15.334Z,7.13
2023-03-14T11:44:31.244Z,4.20
2023-03-14T11:49:42.005Z,4.72
2023-03-14T11:54:50.721Z,2.90
2023-03-14T12:00:21.922Z,3.93
2023-03-14T12:05:54.539Z,4.45
2023-03-14T12:11:15.101Z,12.60
2023-03-14T12:16:40.939Z,7.07
2023-03-14T12:21:54.633Z,5.97
2023-03-14T12:27:02.036Z,5.05
2023-03-14T12:32:08.508Z,5.73
2023-03-14T12:37:15.333Z,2.62
2023-03-14T12:42:45.435Z,3.67
2023-03-14T12:47:53.589Z,4.40
2023-03-14T12:53:37.395Z,3.37
2023-03-14T12:58:55.507Z,2.50
2023-03-14T13:04:03.960Z,1.98
2023-03-14T13:09:30.171Z,5.20
2023-03-14T13:14:32.939Z,3.40
2023-03-14T13:19:35.770Z,4.95
2023-03-14T13:24:38.072Z,7.93
2023-03-14T13:29:40.241Z,3.75
2023-03-14T13:34:42.340Z,5.45
2023-03-14T13:39:50.175Z,2.30
2023-03-14T13:44:54.177Z,3.70
2023-03-14T13:49:56.381Z,2.72
2023-03-14T13:55:01.382Z,4.12
2023-03-14T14:00:17.797Z,5.37
2023-03-14T14:05:20.522Z,3.80
2023-03-14T14:10:23.118Z,4.47
2023-03-14T14:15:29.477Z,3.00
2023-03-14T14:20:39.739Z,4.00
2023-03-14T14:25:44.096Z,5.37
2023-03-14T14:30:46.222Z,5.07
2023-03-14T14:35:58.278Z,2.90
2023-03-14T14:41:04.060Z,3.37
2023-03-14T14:46:09.192Z,5.90
2023-03-14T14:51:11.491Z,2.93
2023-03-14T14:56:26.213Z,6.78
2023-03-14T15:01:38.091Z,4.85
2023-03-14T15:06:42.746Z,5.77
2023-03-14T15:11:45.360Z,7.65
2023-03-14T15:16:47.516Z,5.87
2023-03-14T15:21:49.590Z,10.43
2023-03-14T15:26:52.353Z,7.90
2023-03-14T15:31:54.470Z,9.48
2023-03-14T15:36:56.512Z,5.75
2023-03-14T15:41:58.590Z,5.13
2023-03-14T15:47:00.756Z,7.70
2023-03-14T15:52:03.158Z,6.53
2023-03-14T15:57:07.511Z,2.40
2023-03-14T16:02:11.441Z,2.75
2023-03-14T16:07:13.531Z,2.85
2023-03-14T16:12:15.604Z,2.63
2023-03-14T16:17:17.680Z,4.00
2023-03-14T16:22:19.825Z,3.25
2023-03-14T16:27:21.961Z,3.37
2023-03-14T16:32:24.401Z,2.63
2023-03-14T16:37:27.518Z,2.87
2023-03-14T16:42:29.917Z,3.37
2023-03-14T16:47:32.160Z,3.03
2023-03-14T16:52:34.193Z,3.92
2023-03-14T16:57:36.218Z,3.92
2023-03-14T17:02:38.914Z,4.13
2023-03-14T17:07:41.039Z,2.93
2023-03-14T17:12:44.629Z,2.75
2023-03-14T17:17:46.686Z,5.32
2023-03-14T17:22:48.758Z,4.43
2023-03-14T17:27:50.935Z,2.65
2023-03-14T17:32:53.190Z,6.03
2023-03-14T17:37:55.353Z,3.13
2023-03-14T17:42:57.594Z,1.58
2023-03-14T17:47:59.692Z,3.37
2023-03-14T17:53:01.816Z,2.53
2023-03-14T17:58:03.967Z,2.40
2023-03-14T18:03:06.618Z,1.70
2023-03-14T18:08:13.514Z,4.10
2023-03-14T18:13:15.652Z,2.47
2023-03-14T18:18:17.721Z,4.18
2023-03-14T18:23:23.254Z,1.65
2023-03-14T18:28:25.362Z,3.40
2023-03-14T18:33:27.502Z,2.22
2023-03-14T18:38:29.587Z,1.67
2023-03-14T18:43:33.817Z,2.80
2023-03-14T18:48:42.251Z,2.00
2023-03-14T18:53:45.095Z,1.52
2023-03-14T18:58:47.383Z,1.58
2023-03-14T19:03:49.915Z,1.70
2023-03-14T19:08:52.049Z,2.20
2023-03-14T19:13:57.316Z,1.80
2023-03-14T19:18:59.506Z,3.10
2023-03-14T19:24:03.283Z,4.80
2023-03-14T19:29:06.290Z,3.15
2023-03-14T19:34:08.457Z,3.40
2023-03-14T19:39:10.542Z,3.30
2023-03-14T19:44:13.301Z,3.22
2023-03-14T19:49:15.401Z,2.62
2023-03-14T19:54:17.622Z,4.83
2023-03-14T19:59:19.697Z,5.37
2023-03-14T20:04:21.787Z,3.80
2023-03-14T20:09:23.922Z,3.87
2023-03-14T20:14:26.069Z,5.15
2023-03-14T20:19:28.718Z,8.80
2023-03-14T20:24:32.460Z,4.33
2023-03-14T20:29:34.665Z,4.63
2023-03-14T20:34:36.786Z,4.37
2023-03-14T20:39:39.056Z,2.35
2023-03-14T20:44:41.209Z,2.47
2023-03-14T20:49:43.349Z,3.80
2023-03-14T20:54:46.185Z,2.25
2023-03-14T20:59:48.312Z,2.10
2023-03-14T21:04:50.541Z,2.35
2023-03-14T21:09:52.660Z,2.92
2023-03-14T21:14:54.808Z,3.13
2023-03-14T21:20:00.577Z,4.50
2023-03-14T21:25:02.755Z,5.80
2023-03-14T21:30:05.491Z,6.65
2023-03-14T21:35:08.004Z,5.70
2023-03-14T21:40:11.243Z,6.55
2023-03-14T21:45:13.331Z,8.10
